createdAt,value
2022-10-22T00:01:17.884Z,10.36
2022-10-22T00:03:45.857Z,10.34
2022-10-22T00:06:13.986Z,10.34
2022-10-22T00:08:41.728Z,10.34
2022-10-22T00:11:15.476Z,10.33
2022-10-22T00:13:44.280Z,10.30
2022-10-22T00:16:12.185Z,10.27
2022-10-22T00:18:40.566Z,10.27
2022-10-22T00:21:08.450Z,10.23
2022-10-22T00:23:36.373Z,10.20
2022-10-22T00:26:04.346Z,10.16
2022-10-22T00:28:32.272Z,10.15
2022-10-22T00:31:01.204Z,10.15
2022-10-22T00:33:29.775Z,10.15
2022-10-22T00:35:58.160Z,10.12
2022-10-22T00:38:26.123Z,10.14
2022-10-22T00:40:53.959Z,10.15
2022-10-22T00:43:22.195Z,10.14
2022-10-22T00:45:50.107Z,10.16
2022-10-22T00:48:27.315Z,10.17
2022-10-22T00:51:01.035Z,10.15
2022-10-22T00:53:34.670Z,10.12
2022-10-22T00:56:02.773Z,10.13
2022-10-22T00:58:35.003Z,10.10
2022-10-22T01:01:04.131Z,10.07
2022-10-22T01:03:32.948Z,10.05
2022-10-22T01:06:04.267Z,10.00
2022-10-22T01:08:34.993Z,9.95
2022-10-22T01:11:34.527Z,9.87
2022-10-22T01:14:25.272Z,9.84
2022-10-22T01:17:01.966Z,9.80
2022-10-22T01:19:44.679Z,9.74
2022-10-22T01:22:32.693Z,9.69
2022-10-22T01:25:35.894Z,9.64
2022-10-22T01:28:26.317Z,9.56
2022-10-22T01:30:57.803Z,9.48
2022-10-22T01:33:28.191Z,9.45
2022-10-22T01:35:57.580Z,9.42
2022-10-22T01:38:26.483Z,9.41
2022-10-22T01:40:54.673Z,9.44
2022-10-22T01:43:22.977Z,9.41
2022-10-22T01:45:56.417Z,9.38
2022-10-22T01:48:49.157Z,9.36
2022-10-22T01:51:32.066Z,9.36
2022-10-22T01:54:06.880Z,9.34
2022-10-22T01:57:04.689Z,9.33
2022-10-22T02:00:01.388Z,9.28
2022-10-22T02:02:35.963Z,9.32
2022-10-22T02:05:16.742Z,9.32
2022-10-22T02:07:49.521Z,9.30
2022-10-22T02:10:18.398Z,9.32
2022-10-22T02:12:50.418Z,9.34
2022-10-22T02:15:21.263Z,9.33
2022-10-22T02:17:49.817Z,9.33
2022-10-22T02:20:22.783Z,9.33
2022-10-22T02:22:50.764Z,9.33
2022-10-22T02:25:21.303Z,9.35
2022-10-22T02:28:02.888Z,9.37
2022-10-22T02:30:32.945Z,9.39
2022-10-22T02:33:11.973Z,9.43
2022-10-22T02:35:41.668Z,9.47
2022-10-22T02:38:10.926Z,9.50
2022-10-22T02:40:39.227Z,9.55
2022-10-22T02:43:07.239Z,9.59
2022-10-22T02:45:35.287Z,9.65
2022-10-22T02:48:05.003Z,9.71
2022-10-22T02:50:32.848Z,9.78
2022-10-22T02:53:00.585Z,9.86
2022-10-22T02:55:28.445Z,9.92
2022-10-22T02:57:56.284Z,10.13
2022-10-22T03:00:24.118Z,10.35
2022-10-22T03:02:52.273Z,10.56
2022-10-22T03:05:20.095Z,10.74
2022-10-22T03:07:47.882Z,10.94
2022-10-22T03:10:15.929Z,11.10
2022-10-22T03:12:43.792Z,11.25
2022-10-22T03:15:11.567Z,11.37
2022-10-22T03:17:39.492Z,11.45
2022-10-22T03:20:07.900Z,11.50
2022-10-22T03:22:39.341Z,11.55
2022-10-22T03:25:12.337Z,11.60
2022-10-22T03:27:42.109Z,11.63
2022-10-22T03:30:10.662Z,11.63
2022-10-22T03:32:38.756Z,11.63
2022-10-22T03:35:07.202Z,11.62
2022-10-22T03:37:36.852Z,11.59
2022-10-22T03:40:07.649Z,11.58
2022-10-22T03:42:35.448Z,11.57
2022-10-22T03:45:04.095Z,11.57
2022-10-22T03:47:31.985Z,11.56
2022-10-22T03:49:59.865Z,11.55
2022-10-22T03:52:28.075Z,11.55
2022-10-22T03:54:55.856Z,11.55
2022-10-22T03:57:23.549Z,11.55
2022-10-22T03:59:51.495Z,11.57
2022-10-22T04:02:19.438Z,11.56
2022-10-22T04:04:47.267Z,11.55
2022-10-22T04:07:15.155Z,11.57
2022-10-22T04:09:42.951Z,11.56
2022-10-22T04:12:10.766Z,11.57
2022-10-22T04:14:38.466Z,11.57
2022-10-22T04:17:06.280Z,11.61
2022-10-22T04:19:34.071Z,11.67
2022-10-22T04:22:01.798Z,11.72
2022-10-22T04:24:31.625Z,11.77
2022-10-22T04:26:59.898Z,11.80
2022-10-22T04:29:27.733Z,11.85
2022-10-22T04:31:55.469Z,11.87
2022-10-22T04:34:23.457Z,11.87
2022-10-22T04:36:51.155Z,11.86
2022-10-22T04:39:19.002Z,11.85
2022-10-22T04:41:46.792Z,11.83
2022-10-22T04:44:17.156Z,11.83
2022-10-22T04:46:45.939Z,11.84
2022-10-22T04:49:13.854Z,11.86
2022-10-22T04:51:41.801Z,11.88
2022-10-22T04:54:09.723Z,11.88
2022-10-22T04:56:37.918Z,11.89
2022-10-22T04:59:09.345Z,11.89
2022-10-22T05:01:42.929Z,11.90
2022-10-22T05:04:14.185Z,11.89
2022-10-22T05:06:42.092Z,11.87
2022-10-22T05:09:17.832Z,11.87
2022-10-22T05:11:49.869Z,11.87
2022-10-22T05:14:21.111Z,11.89
2022-10-22T05:16:49.753Z,11.90
2022-10-22T05:19:24.346Z,11.92
2022-10-22T05:21:54.177Z,11.92
2022-10-22T05:24:23.665Z,11.92
2022-10-22T05:26:58.043Z,11.94
2022-10-22T05:29:28.971Z,11.96
2022-10-22T05:31:58.103Z,11.96
2022-10-22T05:34:30.592Z,11.97
2022-10-22T05:37:00.787Z,11.98
2022-10-22T05:39:28.675Z,12.01
2022-10-22T05:41:57.083Z,12.02
2022-10-22T05:44:25.032Z,12.06
2022-10-22T05:46:52.912Z,12.11
2022-10-22T05:49:20.701Z,12.14
2022-10-22T05:51:48.445Z,12.19
2022-10-22T05:54:22.166Z,12.23
2022-10-22T05:56:50.069Z,12.26
2022-10-22T05:59:17.753Z,12.31
2022-10-22T06:01:45.695Z,12.36
2022-10-22T06:04:13.881Z,12.43
2022-10-22T06:06:50.295Z,12.49
2022-10-22T06:09:29.263Z,12.55
2022-10-22T06:11:58.203Z,12.63
2022-10-22T06:14:27.117Z,12.67
2022-10-22T06:16:55.909Z,12.71
2022-10-22T06:19:26.793Z,12.77
2022-10-22T06:21:54.600Z,12.80
2022-10-22T06:24:22.733Z,12.83
2022-10-22T06:26:52.058Z,12.90
2022-10-22T06:29:20.388Z,13.01
2022-10-22T06:31:49.132Z,13.10
2022-10-22T06:34:18.999Z,13.19
2022-10-22T06:36:47.368Z,13.28
2022-10-22T06:39:17.352Z,13.34
2022-10-22T06:41:45.775Z,13.42
2022-10-22T06:44:18.435Z,13.46
2022-10-22T06:46:49.225Z,13.53
2022-10-22T06:49:17.256Z,13.57
2022-10-22T06:51:45.208Z,13.64
2022-10-22T06:54:16.214Z,13.67
2022-10-22T06:56:44.025Z,13.76
2022-10-22T06:59:11.745Z,13.81
2022-10-22T07:01:39.771Z,13.90
2022-10-22T07:04:08.951Z,13.95
2022-10-22T07:06:36.965Z,14.06
2022-10-22T07:09:04.956Z,14.12
2022-10-22T07:11:44.729Z,14.19
2022-10-22T07:14:14.103Z,14.27
2022-10-22T07:16:46.865Z,14.30
2022-10-22T07:19:14.898Z,14.36
2022-10-22T07:21:42.659Z,14.39
2022-10-22T07:24:10.420Z,14.40
2022-10-22T07:26:38.213Z,14.44
2022-10-22T07:29:06.234Z,14.50
2022-10-22T07:31:34.050Z,14.51
2022-10-22T07:34:01.814Z,14.53
2022-10-22T07:36:29.556Z,14.58
2022-10-22T07:38:59.292Z,14.60
2022-10-22T07:41:28.873Z,14.58
2022-10-22T07:43:57.416Z,14.60
2022-10-22T07:46:26.358Z,14.63
2022-10-22T07:48:54.533Z,14.65
2022-10-22T07:51:22.542Z,14.69
2022-10-22T07:53:50.345Z,14.70
2022-10-22T07:56:18.173Z,14.72
2022-10-22T07:58:46.060Z,14.75
2022-10-22T08:01:13.924Z,14.77
2022-10-22T08:03:41.697Z,14.81
2022-10-22T08:06:12.990Z,14.84
2022-10-22T08:08:42.052Z,14.87
2022-10-22T08:11:10.100Z,14.91
2022-10-22T08:13:42.754Z,14.91
2022-10-22T08:16:13.601Z,14.93
2022-10-22T08:18:41.893Z,14.97
2022-10-22T08:21:10.618Z,15.00
2022-10-22T08:23:38.719Z,15.03
2022-10-22T08:26:06.595Z,15.03
2022-10-22T08:28:37.128Z,15.02
2022-10-22T08:31:07.561Z,15.02
2022-10-22T08:33:35.258Z,15.02
2022-10-22T08:36:03.143Z,15.03
2022-10-22T08:38:35.296Z,15.08
2022-10-22T08:41:12.076Z,15.11
2022-10-22T08:44:18.572Z,15.15
2022-10-22T08:46:51.036Z,15.26
2022-10-22T08:49:35.107Z,15.40
2022-10-22T08:52:05.579Z,15.48
2022-10-22T08:54:39.240Z,15.59
2022-10-22T08:57:09.795Z,15.67
2022-10-22T08:59:50.519Z,15.78
2022-10-22T09:02:56.831Z,15.88
2022-10-22T09:05:48.435Z,15.97
2022-10-22T09:08:19.484Z,16.08
2022-10-22T09:11:09.275Z,16.17
2022-10-22T09:13:37.825Z,16.24
2022-10-22T09:16:16.404Z,16.32
2022-10-22T09:19:23.634Z,16.38
2022-10-22T09:22:19.430Z,16.44
2022-10-22T09:24:53.348Z,16.45
2022-10-22T09:27:28.072Z,16.48
2022-10-22T09:29:56.279Z,16.54
2022-10-22T09:32:25.301Z,16.57
2022-10-22T09:34:57.235Z,16.62
2022-10-22T09:37:28.348Z,16.72
2022-10-22T09:39:59.113Z,16.77
2022-10-22T09:42:26.935Z,16.81
2022-10-22T09:44:59.697Z,16.88
2022-10-22T09:47:42.540Z,16.94
2022-10-22T09:50:50.644Z,17.00
2022-10-22T09:53:35.426Z,17.08
2022-10-22T09:56:17.375Z,17.12
2022-10-22T09:58:49.393Z,17.19
2022-10-22T10:01:21.936Z,17.21
2022-10-22T10:03:50.306Z,17.24
2022-10-22T10:06:20.054Z,17.26
2022-10-22T10:08:48.913Z,17.31
2022-10-22T10:11:29.218Z,17.31
2022-10-22T10:14:16.160Z,17.32
2022-10-22T10:17:12.014Z,17.30
2022-10-22T10:20:03.767Z,17.29
2022-10-22T10:22:47.319Z,17.24
2022-10-22T10:25:43.021Z,17.24
2022-10-22T10:28:10.658Z,17.22
2022-10-22T10:30:50.733Z,17.22
2022-10-22T10:33:53.740Z,17.24
2022-10-22T10:36:24.292Z,17.25
2022-10-22T10:39:06.309Z,17.28
2022-10-22T10:41:50.065Z,17.29
2022-10-22T10:44:36.649Z,17.32
2022-10-22T10:47:50.612Z,17.31
2022-10-22T10:50:32.448Z,17.31
2022-10-22T10:53:52.548Z,17.32
2022-10-22T10:56:39.307Z,17.32
2022-10-22T10:59:23.474Z,17.36
2022-10-22T11:02:08.165Z,17.38
2022-10-22T11:05:02.423Z,17.44
2022-10-22T11:07:56.149Z,17.50
2022-10-22T11:10:41.618Z,17.59
2022-10-22T11:13:37.093Z,17.64
2022-10-22T11:16:26.168Z,17.66
2022-10-22T11:19:03.418Z,17.67
2022-10-22T11:21:49.550Z,17.70
2022-10-22T11:24:26.112Z,17.71
2022-10-22T11:27:02.872Z,17.73
2022-10-22T11:29:39.201Z,17.77
2022-10-22T11:32:14.305Z,17.80
2022-10-22T11:34:48.614Z,17.84
2022-10-22T11:37:17.251Z,17.88
2022-10-22T11:39:54.400Z,17.92
2022-10-22T11:42:33.241Z,17.96
2022-10-22T11:45:03.042Z,18.01
2022-10-22T11:47:42.153Z,18.03
2022-10-22T11:50:23.027Z,18.03
2022-10-22T11:52:53.562Z,18.01
2022-10-22T11:55:33.323Z,17.99
2022-10-22T11:58:03.042Z,17.97
2022-10-22T12:00:39.724Z,17.97
2022-10-22T12:03:33.187Z,17.98
2022-10-22T12:06:13.411Z,17.98
2022-10-22T12:08:56.773Z,18.01
2022-10-22T12:11:41.422Z,18.02
2022-10-22T12:14:23.067Z,18.05
2022-10-22T12:16:57.446Z,18.05
2022-10-22T12:19:28.725Z,18.04
2022-10-22T12:22:11.597Z,18.02
2022-10-22T12:24:46.734Z,18.00
2022-10-22T12:27:33.294Z,17.96
2022-10-22T12:30:02.597Z,17.95
2022-10-22T12:32:41.164Z,17.92
2022-10-22T12:35:17.607Z,17.91
2022-10-22T12:37:48.963Z,17.90
2022-10-22T12:40:22.086Z,17.90
2022-10-22T12:42:52.491Z,17.87
2022-10-22T12:45:21.223Z,17.84
2022-10-22T12:47:51.494Z,17.82
2022-10-22T12:50:23.206Z,17.81
2022-10-22T12:52:54.362Z,17.79
2022-10-22T12:55:25.985Z,17.77
2022-10-22T12:57:54.007Z,17.74
2022-10-22T13:00:28.395Z,17.72
2022-10-22T13:03:00.313Z,17.71
2022-10-22T13:05:34.190Z,17.71
2022-10-22T13:08:16.963Z,17.70
2022-10-22T13:10:53.273Z,17.72
2022-10-22T13:13:45.571Z,17.74
2022-10-22T13:16:19.414Z,17.73
2022-10-22T13:18:48.406Z,17.71
2022-10-22T13:21:38.762Z,17.69
2022-10-22T13:24:24.173Z,17.70
2022-10-22T13:26:54.375Z,17.68
2022-10-22T13:29:24.146Z,17.67
2022-10-22T13:31:53.251Z,17.65
2022-10-22T13:34:24.130Z,17.66
2022-10-22T13:36:52.518Z,17.62
2022-10-22T13:39:22.846Z,17.59
2022-10-22T13:41:51.681Z,17.59
2022-10-22T13:44:19.896Z,17.57
2022-10-22T13:46:48.569Z,17.55
2022-10-22T13:49:20.446Z,17.52
2022-10-22T13:51:48.282Z,17.50
2022-10-22T13:54:19.736Z,17.50
2022-10-22T13:56:47.594Z,17.47
2022-10-22T13:59:17.334Z,17.46
2022-10-22T14:01:47.735Z,17.47
2022-10-22T14:04:15.626Z,17.49
2022-10-22T14:06:43.920Z,17.49
2022-10-22T14:09:15.894Z,17.51
2022-10-22T14:11:43.845Z,17.50
2022-10-22T14:14:17.273Z,17.49
2022-10-22T14:16:45.184Z,17.47
2022-10-22T14:19:16.629Z,17.46
2022-10-22T14:21:44.670Z,17.44
2022-10-22T14:24:13.403Z,17.40
2022-10-22T14:26:41.550Z,17.39
2022-10-22T14:29:10.614Z,17.36
2022-10-22T14:31:44.583Z,17.34
2022-10-22T14:34:15.987Z,17.32
2022-10-22T14:36:44.321Z,17.30
2022-10-22T14:39:13.004Z,17.30
2022-10-22T14:41:41.875Z,17.28
2022-10-22T14:44:14.330Z,17.27
2022-10-22T14:46:49.137Z,17.24
2022-10-22T14:49:16.946Z,17.22
2022-10-22T14:51:44.776Z,17.19
2022-10-22T14:54:12.621Z,17.18
2022-10-22T14:56:40.392Z,17.13
2022-10-22T14:59:08.139Z,17.11
2022-10-22T15:01:35.952Z,17.07
2022-10-22T15:04:03.830Z,17.02
2022-10-22T15:06:31.702Z,16.99
2022-10-22T15:09:02.037Z,16.97
2022-10-22T15:11:29.934Z,16.95
2022-10-22T15:13:57.729Z,16.93
2022-10-22T15:16:26.056Z,16.89
2022-10-22T15:18:53.997Z,16.86
2022-10-22T15:21:23.232Z,16.82
2022-10-22T15:23:51.148Z,16.79
2022-10-22T15:26:19.822Z,16.76
2022-10-22T15:28:47.734Z,16.72
2022-10-22T15:31:15.838Z,16.69
2022-10-22T15:33:43.832Z,16.67
2022-10-22T15:36:16.357Z,16.68
2022-10-22T15:38:44.231Z,16.68
2022-10-22T15:41:13.355Z,16.67
2022-10-22T15:43:41.228Z,16.65
2022-10-22T15:46:13.484Z,16.65
2022-10-22T15:48:41.889Z,16.64
2022-10-22T15:51:18.634Z,16.63
2022-10-22T15:53:52.273Z,16.64
2022-10-22T15:56:20.838Z,16.67
2022-10-22T15:58:53.297Z,16.67
2022-10-22T16:01:21.338Z,16.68
2022-10-22T16:03:53.473Z,16.68
2022-10-22T16:06:21.421Z,16.68
2022-10-22T16:08:49.209Z,16.69
2022-10-22T16:11:17.119Z,16.69
2022-10-22T16:13:44.877Z,16.71
2022-10-22T16:16:12.662Z,16.72
2022-10-22T16:18:40.395Z,16.71
2022-10-22T16:21:12.618Z,16.73
2022-10-22T16:23:41.688Z,16.76
2022-10-22T16:26:09.601Z,16.75
2022-10-22T16:28:39.979Z,16.73
2022-10-22T16:31:10.832Z,16.71
2022-10-22T16:33:42.938Z,16.71
2022-10-22T16:36:14.915Z,16.71
2022-10-22T16:38:42.637Z,16.72
2022-10-22T16:41:16.635Z,16.73
2022-10-22T16:43:48.403Z,16.72
2022-10-22T16:46:18.692Z,16.72
2022-10-22T16:48:51.721Z,16.73
2022-10-22T16:51:22.669Z,16.71
2022-10-22T16:53:55.078Z,16.70
2022-10-22T16:56:23.316Z,16.67
2022-10-22T16:58:53.803Z,16.66
2022-10-22T17:01:25.850Z,16.67
2022-10-22T17:03:56.424Z,16.68
2022-10-22T17:06:25.259Z,16.71
2022-10-22T17:08:53.452Z,16.72
2022-10-22T17:11:22.944Z,16.73
2022-10-22T17:13:53.460Z,16.77
2022-10-22T17:16:23.619Z,16.83
2022-10-22T17:18:53.535Z,16.90
2022-10-22T17:21:22.327Z,16.94
2022-10-22T17:23:55.032Z,16.98
2022-10-22T17:26:23.196Z,17.01
2022-10-22T17:28:50.986Z,17.03
2022-10-22T17:31:28.058Z,17.05
2022-10-22T17:33:57.137Z,17.08
2022-10-22T17:36:28.353Z,17.12
2022-10-22T17:39:02.185Z,17.12
2022-10-22T17:41:32.582Z,17.14
2022-10-22T17:44:03.292Z,17.16
2022-10-22T17:46:32.465Z,17.19
2022-10-22T17:49:07.094Z,17.21
2022-10-22T17:51:35.116Z,17.21
2022-10-22T17:54:05.980Z,17.22
2022-10-22T17:56:37.676Z,17.25
2022-10-22T17:59:06.065Z,17.23
2022-10-22T18:01:35.834Z,17.25
2022-10-22T18:04:06.269Z,17.24
2022-10-22T18:06:34.664Z,17.24
2022-10-22T18:09:08.394Z,17.22
2022-10-22T18:11:39.076Z,17.23
2022-10-22T18:14:07.033Z,17.26
2022-10-22T18:16:34.756Z,17.22
2022-10-22T18:19:02.720Z,17.22
2022-10-22T18:21:30.645Z,17.20
2022-10-22T18:23:59.448Z,17.17
2022-10-22T18:26:27.378Z,17.15
2022-10-22T18:28:57.504Z,17.08
2022-10-22T18:31:27.044Z,17.06
2022-10-22T18:33:55.772Z,17.02
2022-10-22T18:36:26.191Z,16.93
2022-10-22T18:38:59.240Z,16.87
2022-10-22T18:41:28.303Z,16.79
2022-10-22T18:44:01.179Z,16.74
2022-10-22T18:46:30.339Z,16.69
2022-10-22T18:48:59.012Z,16.60
2022-10-22T18:51:32.631Z,16.54
2022-10-22T18:54:11.236Z,16.50
2022-10-22T18:56:46.394Z,16.39
2022-10-22T18:59:20.207Z,16.30
2022-10-22T19:01:48.845Z,16.25
2022-10-22T19:04:16.858Z,16.12
2022-10-22T19:06:45.969Z,16.00
2022-10-22T19:09:15.446Z,15.87
2022-10-22T19:11:47.190Z,15.70
2022-10-22T19:14:15.192Z,15.52
2022-10-22T19:16:42.967Z,15.45
2022-10-22T19:19:11.447Z,15.30
2022-10-22T19:21:39.424Z,15.22
2022-10-22T19:24:07.316Z,15.17
2022-10-22T19:26:35.081Z,15.08
2022-10-22T19:29:03.611Z,14.95
2022-10-22T19:31:31.773Z,14.90
2022-10-22T19:34:02.741Z,14.84
2022-10-22T19:36:32.669Z,14.75
2022-10-22T19:39:01.814Z,14.68
2022-10-22T19:41:31.384Z,14.58
2022-10-22T19:44:00.667Z,14.52
2022-10-22T19:46:30.083Z,14.48
2022-10-22T19:48:58.285Z,14.47
2022-10-22T19:51:29.901Z,14.44
2022-10-22T19:54:00.239Z,14.41
2022-10-22T19:56:29.098Z,14.29
2022-10-22T19:58:57.748Z,14.24
2022-10-22T20:01:26.397Z,14.18
2022-10-22T20:03:54.656Z,14.12
2022-10-22T20:06:24.065Z,14.08
2022-10-22T20:08:55.229Z,13.99
2022-10-22T20:11:27.774Z,13.98
2022-10-22T20:13:56.712Z,13.99
2022-10-22T20:16:28.586Z,13.97
2022-10-22T20:19:01.804Z,13.89
2022-10-22T20:21:30.477Z,13.87
2022-10-22T20:23:59.038Z,13.81
2022-10-22T20:26:28.352Z,13.73
2022-10-22T20:28:57.553Z,13.70
2022-10-22T20:31:28.574Z,13.62
2022-10-22T20:33:58.779Z,13.58
2022-10-22T20:36:28.301Z,13.57
2022-10-22T20:39:07.395Z,13.52
2022-10-22T20:41:37.914Z,13.50
2022-10-22T20:44:07.441Z,13.44
2022-10-22T20:46:35.349Z,13.43
2022-10-22T20:49:09.990Z,13.38
2022-10-22T20:51:38.106Z,13.33
2022-10-22T20:54:07.634Z,13.31
2022-10-22T20:56:37.964Z,13.27
2022-10-22T20:59:08.484Z,13.20
2022-10-22T21:01:37.814Z,13.21
2022-10-22T21:04:06.630Z,13.18
2022-10-22T21:06:38.011Z,13.09
2022-10-22T21:09:07.766Z,13.06
2022-10-22T21:11:37.250Z,13.04
2022-10-22T21:14:06.896Z,13.00
2022-10-22T21:16:35.438Z,12.91
2022-10-22T21:19:03.194Z,12.88
2022-10-22T21:21:31.016Z,12.77
2022-10-22T21:23:58.732Z,12.73
2022-10-22T21:26:26.654Z,12.65
2022-10-22T21:28:54.342Z,12.63
2022-10-22T21:31:24.158Z,12.64
2022-10-22T21:33:53.461Z,12.61
2022-10-22T21:36:23.150Z,12.59
2022-10-22T21:38:52.276Z,12.46
2022-10-22T21:41:23.140Z,12.43
2022-10-22T21:43:51.311Z,12.36
2022-10-22T21:46:25.481Z,12.28
2022-10-22T21:48:59.309Z,12.27
2022-10-22T21:51:27.469Z,12.24
2022-10-22T21:53:55.350Z,12.21
2022-10-22T21:56:26.119Z,12.13
2022-10-22T21:58:54.631Z,12.05
2022-10-22T22:01:23.117Z,12.00
2022-10-22T22:03:52.446Z,12.06
2022-10-22T22:06:23.178Z,12.07
2022-10-22T22:08:53.750Z,12.07
2022-10-22T22:11:26.895Z,11.98
2022-10-22T22:13:56.107Z,11.96
2022-10-22T22:16:28.452Z,11.97
2022-10-22T22:18:59.040Z,11.99
2022-10-22T22:21:27.547Z,11.98
2022-10-22T22:23:56.676Z,11.98
2022-10-22T22:26:29.559Z,11.95
2022-10-22T22:28:59.679Z,12.03
2022-10-22T22:31:29.073Z,12.03
2022-10-22T22:34:04.220Z,12.08
2022-10-22T22:36:37.962Z,12.03
2022-10-22T22:39:08.656Z,11.99
2022-10-22T22:41:36.467Z,11.98
2022-10-22T22:44:04.317Z,12.02
2022-10-22T22:46:32.583Z,12.05
2022-10-22T22:49:00.839Z,12.06
2022-10-22T22:51:28.645Z,12.07
2022-10-22T22:54:00.388Z,12.04
2022-10-22T22:56:30.074Z,11.99
2022-10-22T22:58:58.444Z,12.03
2022-10-22T23:01:31.216Z,12.03
2022-10-22T23:04:11.683Z,12.03
2022-10-22T23:06:39.932Z,11.99
2022-10-22T23:09:10.026Z,12.03
2022-10-22T23:11:39.242Z,11.99
2022-10-22T23:14:08.449Z,11.98
2022-10-22T23:16:38.110Z,12.00
2022-10-22T23:19:06.372Z,12.02
2022-10-22T23:21:37.572Z,12.01
2022-10-22T23:24:09.184Z,11.97
2022-10-22T23:26:41.333Z,11.93
2022-10-22T23:29:14.333Z,11.92
2022-10-22T23:31:43.223Z,11.94
2022-10-22T23:34:12.801Z,11.98
2022-10-22T23:36:40.819Z,11.97
2022-10-22T23:39:12.066Z,11.98
2022-10-22T23:41:39.813Z,12.01
2022-10-22T23:44:09.652Z,12.06
2022-10-22T23:46:38.682Z,12.04
2022-10-22T23:49:07.751Z,12.04
2022-10-22T23:51:35.970Z,12.05
2022-10-22T23:54:07.287Z,12.10
2022-10-22T23:56:35.799Z,12.08
2022-10-22T23:59:04.591Z,12.08
